createdAt,value
2023-05-22T00:00:21.132Z,3618
2023-05-22T00:10:21.127Z,3620
2023-05-22T00:20:21.057Z,3620
2023-05-22T00:30:21.076Z,3620
2023-05-22T00:40:21.061Z,3623
2023-05-22T00:50:21.417Z,3620
2023-05-22T01:00:21.027Z,3620
2023-05-22T01:10:21.033Z,3620
2023-05-22T01:20:20.991Z,3620
2023-05-22T01:30:21.416Z,3615
2023-05-22T01:40:22.888Z,3605
2023-05-22T01:50:20.933Z,3613
2023-05-22T02:00:20.962Z,3615
2023-05-22T02:10:20.943Z,3618
2023-05-22T02:20:20.892Z,3618
2023-05-22T02:30:20.854Z,3620
2023-05-22T02:40:20.898Z,3620
2023-05-22T02:50:20.827Z,3620
2023-05-22T03:00:20.877Z,3623
2023-05-22T03:10:20.886Z,3620
2023-05-22T03:20:20.811Z,3620
2023-05-22T03:30:21.233Z,3615
2023-05-22T03:40:20.802Z,3618
2023-05-22T03:50:20.776Z,3618
2023-05-22T04:00:21.161Z,3615
2023-05-22T04:10:20.755Z,3615
2023-05-22T04:20:21.124Z,3613
2023-05-22T04:30:20.746Z,3615
2023-05-22T04:40:20.725Z,3618
2023-05-22T04:50:21.100Z,3615
2023-05-22T05:00:22.634Z,3602
2023-05-22T05:10:20.690Z,3610
2023-05-22T05:20:20.621Z,3615
2023-05-22T05:30:21.086Z,3610
2023-05-22T05:40:20.614Z,3618
2023-05-22T05:50:20.582Z,3618
2023-05-22T06:00:20.608Z,3620
2023-05-22T06:10:20.582Z,3620
2023-05-22T06:20:20.525Z,3620
2023-05-22T06:30:32.013Z,3620
2023-05-22T06:40:20.557Z,3620
2023-05-22T06:50:20.458Z,3620
2023-05-22T07:00:21.774Z,3623
2023-05-22T07:10:20.470Z,3623
2023-05-22T07:20:20.446Z,3623
2023-05-22T07:30:20.456Z,3623
2023-05-22T07:40:20.850Z,3618
2023-05-22T07:50:20.411Z,3620
2023-05-22T08:00:20.404Z,3620
2023-05-22T08:10:20.356Z,3623
2023-05-22T08:20:20.389Z,3623
2023-05-22T08:30:20.371Z,3623
2023-05-22T08:40:20.289Z,3623
2023-05-22T08:50:20.698Z,3623
2023-05-22T09:00:20.293Z,3620
2023-05-22T09:10:20.289Z,3623
2023-05-22T09:20:20.253Z,3623
2023-05-22T09:30:20.332Z,3623
2023-05-22T09:40:20.225Z,3626
2023-05-22T09:50:20.180Z,3626
2023-05-22T10:00:20.172Z,3626
2023-05-22T10:10:20.173Z,3626
2023-05-22T10:20:20.318Z,3626
2023-05-22T10:30:20.640Z,3626
2023-05-22T10:40:20.215Z,3626
2023-05-22T10:50:20.091Z,3626
2023-05-22T11:00:20.503Z,3626
2023-05-22T11:10:20.086Z,3626
2023-05-22T11:20:20.052Z,3626
2023-05-22T11:30:20.074Z,3626
2023-05-22T11:40:20.022Z,3626
2023-05-22T11:50:33.606Z,3626
2023-05-22T12:00:20.003Z,3626
2023-05-22T12:10:19.985Z,3626
2023-05-22T12:20:19.925Z,3626
2023-05-22T12:30:19.958Z,3626
2023-05-22T12:40:19.908Z,3626
2023-05-22T12:50:19.841Z,3626
2023-05-22T13:00:19.911Z,3626
2023-05-22T13:10:19.861Z,3626
2023-05-22T13:20:20.232Z,3626
2023-05-22T13:40:20.250Z,3626
2023-05-22T13:50:21.697Z,3613
2023-05-22T14:10:21.716Z,3620
2023-05-22T14:20:19.721Z,3623
2023-05-22T14:30:20.172Z,3623
2023-05-22T14:40:19.710Z,3626
2023-05-22T14:50:20.813Z,3626
2023-05-22T15:00:19.660Z,3626
2023-05-22T15:10:19.669Z,3626
2023-05-22T15:20:19.594Z,3626
2023-05-22T15:30:22.109Z,3626
2023-05-22T15:40:19.599Z,3626
2023-05-22T15:50:19.553Z,3626
2023-05-22T16:00:19.566Z,3626
2023-05-22T16:10:19.521Z,3626
2023-05-22T16:20:21.948Z,3626
2023-05-22T16:30:21.453Z,3613
2023-05-22T16:40:19.530Z,3620
2023-05-22T16:50:19.874Z,3620
2023-05-22T17:00:19.478Z,3623
2023-05-22T17:10:19.464Z,3626
2023-05-22T17:20:19.810Z,3623
2023-05-22T17:30:19.405Z,3626
2023-05-22T17:40:19.398Z,3626
2023-05-22T17:50:19.338Z,3626
2023-05-22T18:00:19.351Z,3626
2023-05-22T18:10:19.322Z,3626
2023-05-22T18:20:19.291Z,3626
2023-05-22T18:30:19.299Z,3626
2023-05-22T18:40:19.286Z,3626
2023-05-22T18:50:19.929Z,3626
2023-05-22T19:00:19.239Z,3626
2023-05-22T19:10:19.236Z,3626
2023-05-22T19:20:19.621Z,3623
2023-05-22T19:30:19.219Z,3623
2023-05-22T19:40:19.210Z,3626
2023-05-22T19:50:19.558Z,3623
2023-05-22T20:00:19.144Z,3623
2023-05-22T20:10:19.165Z,3626
2023-05-22T20:20:19.494Z,3623
2023-05-22T20:30:19.094Z,3623
2023-05-22T20:40:19.096Z,3626
2023-05-22T20:50:19.051Z,3626
2023-05-22T21:00:19.055Z,3626
2023-05-22T21:10:18.993Z,3626
2023-05-22T21:20:18.992Z,3626
2023-05-22T21:30:19.017Z,3626
2023-05-22T21:40:18.954Z,3626
2023-05-22T21:50:19.357Z,3623
2023-05-22T22:00:19.032Z,3623
2023-05-22T22:10:18.945Z,3626
2023-05-22T22:20:24.774Z,3623
2023-05-22T22:30:20.843Z,3610
2023-05-22T22:40:18.899Z,3620
2023-05-22T22:50:19.257Z,3620
2023-05-22T23:00:18.854Z,3623
2023-05-22T23:10:18.846Z,3623
2023-05-22T23:20:18.812Z,3626
2023-05-22T23:30:18.824Z,3626
2023-05-22T23:50:18.760Z,3626
